createdAt,value
2023-04-01T08:01:11.999Z,36.01
2023-04-01T08:02:11.981Z,35.06
2023-04-01T08:03:12.048Z,34.91
2023-04-01T08:04:12.055Z,34.82
2023-04-01T08:05:11.940Z,34.73
2023-04-01T08:06:11.928Z,34.60
2023-04-01T08:07:11.918Z,34.51
2023-04-01T08:08:11.912Z,34.41
2023-04-01T08:09:11.921Z,34.31
2023-04-01T08:10:11.925Z,34.22
2023-04-01T08:11:11.901Z,34.21
2023-04-01T08:12:11.886Z,34.02
2023-04-01T08:13:11.869Z,33.92
2023-04-01T08:14:11.899Z,33.90
2023-04-01T08:15:11.838Z,33.75
2023-04-01T08:16:11.952Z,33.69
2023-04-01T08:17:11.857Z,33.60
2023-04-01T08:18:11.879Z,33.59
2023-04-01T08:19:11.872Z,33.48
2023-04-01T08:20:11.899Z,33.43
2023-04-01T08:21:11.973Z,33.39
2023-04-01T08:22:11.997Z,33.32
2023-04-01T08:23:12.013Z,33.24
2023-04-01T08:24:12.107Z,33.24
2023-04-01T08:25:12.137Z,33.12
2023-04-01T08:26:12.161Z,33.15
2023-04-01T08:27:12.225Z,33.22
2023-04-01T08:28:12.251Z,33.23
2023-04-01T08:29:12.275Z,33.00
2023-04-01T08:30:12.324Z,33.14
2023-04-01T08:31:12.353Z,32.97
2023-04-01T08:32:12.399Z,33.01
2023-04-01T08:33:12.468Z,32.99
2023-04-01T08:34:12.439Z,33.00
2023-04-01T08:35:12.490Z,32.99
2023-04-01T08:36:12.588Z,33.12
2023-04-01T08:37:12.499Z,32.97
2023-04-01T08:38:12.535Z,33.03
2023-04-01T08:39:12.556Z,32.95
2023-04-01T08:40:12.582Z,33.02
2023-04-01T08:41:12.609Z,32.86
2023-04-01T08:42:12.647Z,32.95
2023-04-01T08:43:12.640Z,32.95
2023-04-01T08:44:12.672Z,32.89
2023-04-01T08:45:14.517Z,32.94
2023-04-01T08:46:12.745Z,32.89
2023-04-01T08:47:12.738Z,32.90
2023-04-01T08:48:12.824Z,32.75
2023-04-01T08:49:12.795Z,32.97
2023-04-01T08:50:12.788Z,33.00
2023-04-01T08:51:12.832Z,32.85
2023-04-01T08:52:12.825Z,32.89
2023-04-01T08:53:12.854Z,32.81
2023-04-01T08:54:12.860Z,32.80
2023-04-01T08:55:12.926Z,32.89
2023-04-01T08:56:12.928Z,32.83
2023-04-01T08:57:12.967Z,32.84
2023-04-01T08:58:12.954Z,32.87
2023-04-01T08:59:12.953Z,32.83
2023-04-01T09:00:12.975Z,32.75
2023-04-01T09:01:12.998Z,32.78
2023-04-01T09:02:13.031Z,32.76
2023-04-01T09:03:13.157Z,32.79
2023-04-01T09:04:13.057Z,32.86
2023-04-01T09:05:13.024Z,32.82
2023-04-01T09:06:13.084Z,32.78
2023-04-01T09:07:13.098Z,32.88
2023-04-01T09:08:13.070Z,32.83
2023-04-01T09:09:13.070Z,32.77
2023-04-01T09:10:13.088Z,32.78
2023-04-01T09:11:13.085Z,32.77
2023-04-01T09:12:13.152Z,32.73
2023-04-01T09:13:13.092Z,32.72
2023-04-01T09:14:13.136Z,32.83
2023-04-01T09:15:13.165Z,32.82
2023-04-01T09:16:13.159Z,32.73
2023-04-01T09:17:13.190Z,32.61
2023-04-01T09:18:13.185Z,32.79
2023-04-01T09:19:13.190Z,32.80
2023-04-01T09:20:13.181Z,32.74
2023-04-01T09:21:13.233Z,32.84
2023-04-01T09:22:13.180Z,32.63
2023-04-01T09:23:13.196Z,32.70
2023-04-01T09:24:13.221Z,32.81
2023-04-01T09:25:13.224Z,32.71
2023-04-01T09:26:13.261Z,32.68
2023-04-01T09:27:13.259Z,32.79
2023-04-01T09:28:13.237Z,32.79
2023-04-01T09:29:13.237Z,32.76
2023-04-01T09:30:13.263Z,32.56
2023-04-01T09:31:13.314Z,32.48
2023-04-01T09:32:13.275Z,32.49
2023-04-01T09:33:13.268Z,32.41
2023-04-01T09:34:13.280Z,32.55
2023-04-01T09:35:13.269Z,32.30
2023-04-01T09:36:13.305Z,32.30
2023-04-01T09:37:13.311Z,32.19
2023-04-01T09:38:13.276Z,32.27
2023-04-01T09:39:13.281Z,32.24
2023-04-01T09:40:13.251Z,32.19
2023-04-01T09:41:13.279Z,32.20
2023-04-01T09:42:13.307Z,32.22
2023-04-01T09:43:13.280Z,32.13
2023-04-01T09:44:13.300Z,32.09
2023-04-01T09:45:13.294Z,32.13
2023-04-01T09:46:13.409Z,32.13
2023-04-01T09:47:13.277Z,32.02
2023-04-01T09:48:13.388Z,32.08
2023-04-01T09:49:13.306Z,32.08
2023-04-01T09:50:13.322Z,32.09
2023-04-01T09:51:13.322Z,32.15
2023-04-01T09:52:13.310Z,32.17
2023-04-01T09:53:13.321Z,32.19
2023-04-01T09:54:13.351Z,32.28
2023-04-01T09:55:13.335Z,32.23
2023-04-01T09:56:13.348Z,32.20
2023-04-01T09:57:13.406Z,32.33
2023-04-01T09:58:13.394Z,32.28
2023-04-01T09:59:13.362Z,32.31
2023-04-01T10:00:13.369Z,32.28
2023-04-01T10:01:13.402Z,32.19
2023-04-01T10:02:13.374Z,32.34
2023-04-01T10:03:13.407Z,32.31
2023-04-01T10:04:13.351Z,32.34
2023-04-01T10:05:13.412Z,32.25
2023-04-01T10:06:13.440Z,32.22
2023-04-01T10:07:13.383Z,32.30
2023-04-01T10:08:13.412Z,32.13
2023-04-01T10:09:13.359Z,32.15
2023-04-01T10:10:13.367Z,32.08
2023-04-01T10:11:13.383Z,32.17
2023-04-01T10:12:13.364Z,32.13
2023-04-01T10:13:13.405Z,32.17
2023-04-01T10:14:13.375Z,32.17
2023-04-01T10:15:13.411Z,32.18
2023-04-01T10:16:13.393Z,32.10
2023-04-01T10:17:13.372Z,32.16
2023-04-01T10:18:13.410Z,32.22
2023-04-01T10:19:13.398Z,32.10
2023-04-01T10:20:13.394Z,32.11
2023-04-01T10:21:13.380Z,32.16
2023-04-01T10:22:13.369Z,32.13
2023-04-01T10:23:13.437Z,32.14
2023-04-01T10:24:13.381Z,32.10
2023-04-01T10:25:13.427Z,32.10
2023-04-01T10:26:13.384Z,32.11
2023-04-01T10:27:13.393Z,32.04
2023-04-01T10:28:13.394Z,32.09
2023-04-01T10:29:13.428Z,32.11
2023-04-01T10:30:13.435Z,32.14
2023-04-01T10:31:13.436Z,32.14
2023-04-01T10:32:13.506Z,32.14
2023-04-01T10:33:13.406Z,32.15
2023-04-01T10:34:13.440Z,32.21
2023-04-01T10:35:13.473Z,32.20
2023-04-01T10:36:13.431Z,32.09
2023-04-01T10:37:13.454Z,32.02
2023-04-01T10:38:13.402Z,32.00
2023-04-01T10:39:13.455Z,31.98
2023-04-01T10:40:13.461Z,32.18
2023-04-01T10:41:13.408Z,31.97
2023-04-01T10:42:13.414Z,31.89
2023-04-01T10:43:13.449Z,31.84
2023-04-01T10:44:13.525Z,31.98
2023-04-01T10:45:13.546Z,31.84
2023-04-01T10:46:15.598Z,31.84
2023-04-01T10:47:13.534Z,31.82
2023-04-01T10:48:13.491Z,31.78
2023-04-01T10:49:13.491Z,31.78
2023-04-01T10:50:13.484Z,31.80
2023-04-01T10:51:13.473Z,31.79
2023-04-01T10:52:13.466Z,31.76
2023-04-01T10:53:13.476Z,31.77
2023-04-01T10:54:13.436Z,31.76
2023-04-01T10:55:13.441Z,31.81
2023-04-01T10:56:13.473Z,32.17
2023-04-01T10:57:13.472Z,32.31
2023-04-01T10:58:13.462Z,32.29
2023-04-01T10:59:13.431Z,32.14
2023-04-01T11:00:13.419Z,32.09
2023-04-01T11:01:13.454Z,32.20
2023-04-01T11:02:13.532Z,32.44
2023-04-01T11:03:13.504Z,32.20
2023-04-01T11:04:13.385Z,32.16
2023-04-01T11:05:13.385Z,31.96
2023-04-01T11:06:13.357Z,32.20
2023-04-01T11:07:13.392Z,32.13
2023-04-01T11:08:13.352Z,32.13
2023-04-01T11:09:13.368Z,31.99
2023-04-01T11:10:13.355Z,31.85
2023-04-01T11:11:13.323Z,31.82
2023-04-01T11:12:13.346Z,31.95
2023-04-01T11:13:13.341Z,31.83
2023-04-01T11:14:13.326Z,32.00
2023-04-01T11:15:13.340Z,31.74
2023-04-01T11:16:13.392Z,31.86
2023-04-01T11:17:13.325Z,32.12
2023-04-01T11:18:13.384Z,31.96
2023-04-01T11:19:13.342Z,31.83
2023-04-01T11:20:13.290Z,31.83
2023-04-01T11:21:13.282Z,31.87
2023-04-01T11:22:13.295Z,31.73
2023-04-01T11:23:13.304Z,31.70
2023-04-01T11:24:13.286Z,31.72
2023-04-01T11:25:13.251Z,31.71
2023-04-01T11:26:13.271Z,31.70
2023-04-01T11:27:13.282Z,31.68
2023-04-01T11:28:13.239Z,31.66
2023-04-01T11:29:13.216Z,31.61
2023-04-01T11:30:13.310Z,31.62
2023-04-01T11:31:13.240Z,31.65
2023-04-01T11:32:13.180Z,31.63
2023-04-01T11:33:13.195Z,31.61
2023-04-01T11:34:13.189Z,31.62
2023-04-01T11:35:13.202Z,31.62
2023-04-01T11:36:13.208Z,31.57
2023-04-01T11:37:13.161Z,31.55
2023-04-01T11:38:13.173Z,31.57
2023-04-01T11:39:13.170Z,31.54
2023-04-01T11:40:13.180Z,31.55
2023-04-01T11:41:13.128Z,31.57
2023-04-01T11:42:13.122Z,31.55
2023-04-01T11:43:19.976Z,31.51
2023-04-01T11:44:14.138Z,31.52
2023-04-01T11:45:13.140Z,31.55
2023-04-01T11:46:13.166Z,31.49
2023-04-01T11:47:13.109Z,31.53
2023-04-01T11:48:13.088Z,31.50
2023-04-01T11:49:13.133Z,31.48
2023-04-01T11:50:13.124Z,31.47
2023-04-01T11:51:13.087Z,31.48
2023-04-01T11:52:13.066Z,31.46
2023-04-01T11:53:13.134Z,31.44
2023-04-01T11:54:13.131Z,31.45
2023-04-01T11:55:13.195Z,31.45
2023-04-01T11:56:13.273Z,31.43
2023-04-01T11:57:13.402Z,31.44
2023-04-01T11:58:13.344Z,31.43
2023-04-01T11:59:13.395Z,31.45
2023-04-01T12:00:13.477Z,31.47
2023-04-01T12:01:13.516Z,31.45
2023-04-01T12:02:13.633Z,31.42
2023-04-01T12:03:13.708Z,31.44
2023-04-01T12:04:13.879Z,31.41
2023-04-01T12:05:13.814Z,31.42
2023-04-01T12:06:13.857Z,31.40
2023-04-01T12:07:13.922Z,31.41
2023-04-01T12:08:13.970Z,31.39
2023-04-01T12:09:14.039Z,31.41
2023-04-01T12:10:14.070Z,31.40
2023-04-01T12:11:14.148Z,31.39
2023-04-01T12:12:14.230Z,31.40
2023-04-01T12:13:14.317Z,31.39
2023-04-01T12:14:14.404Z,31.39
2023-04-01T12:15:14.422Z,31.40
2023-04-01T12:16:14.462Z,31.35
2023-04-01T12:17:14.558Z,31.37
2023-04-01T12:18:14.562Z,31.34
2023-04-01T12:19:14.603Z,31.35
2023-04-01T12:20:14.703Z,31.32
2023-04-01T12:21:14.734Z,31.33
2023-04-01T12:22:14.819Z,31.33
2023-04-01T12:23:14.870Z,31.34
2023-04-01T12:24:14.928Z,31.32
2023-04-01T12:25:14.985Z,31.32
2023-04-01T12:26:15.064Z,31.33
2023-04-01T12:27:15.115Z,31.34
2023-04-01T12:28:15.165Z,31.35
2023-04-01T12:29:15.221Z,31.35
2023-04-01T12:30:15.302Z,31.33
2023-04-01T12:31:15.337Z,31.34
2023-04-01T12:32:15.475Z,31.30
2023-04-01T12:33:15.467Z,31.31
2023-04-01T12:34:15.474Z,31.32
2023-04-01T12:35:15.512Z,31.31
2023-04-01T12:36:15.655Z,31.28
2023-04-01T12:37:15.635Z,31.31
2023-04-01T12:38:15.692Z,31.29
2023-04-01T12:39:15.704Z,31.30
2023-04-01T12:40:15.767Z,31.29
2023-04-01T12:41:15.868Z,31.30
2023-04-01T12:42:15.866Z,31.31
2023-04-01T12:43:15.928Z,31.30
2023-04-01T12:44:15.973Z,31.30
2023-04-01T12:45:16.028Z,31.30
2023-04-01T12:46:16.125Z,31.30
2023-04-01T12:47:16.154Z,31.31
2023-04-01T12:48:16.179Z,31.30
2023-04-01T12:49:16.245Z,31.30
2023-04-01T12:50:16.287Z,31.32
2023-04-01T12:51:16.371Z,31.30
2023-04-01T12:52:16.364Z,31.29
2023-04-01T12:53:16.433Z,31.32
2023-04-01T12:54:16.470Z,31.31
2023-04-01T12:55:16.541Z,31.30
2023-04-01T12:56:16.617Z,31.29
2023-04-01T12:57:16.681Z,31.31
2023-04-01T12:58:16.673Z,31.33
2023-04-01T12:59:16.739Z,31.31
2023-04-01T13:00:16.816Z,31.30
